Thursday, August 25, 2016
20:16 UTC
  |  Log In   |  Register Free
Airport Search:

Williamsburg-Jamestown Airport
(KJGG)

Williamsburg-Jamestown Airport Diagram
No Airport Diagram Available

FAA data valid effective Jul 21 2016 - Sep 15 2016 (unless otherwise noted).

 
 
 
 
 
 
 
 
 
 
 
 
 
 
Current Aviation Weather for KJGG

Weather Summary


The most recent METAR observation for JGG was updated at: 12:55 UTC
METAR for JGG is not available. Closest METAR is for
METAR

METAR KJGG 251955Z 19006KT 10SM CLR 33/21 A3007 RMK AO1

METAR KJGG 251935Z 17007KT 10SM CLR 33/21 A3007 RMK AO1

METAR KJGG 251915Z 17009G14KT 140V210 10SM CLR 33/21 A3008 RMK AO1

METAR KJGG 251855Z 17008KT 10SM CLR 33/21 A3009 RMK AO1

METAR KJGG 251835Z 19007KT 10SM CLR 33/21 A3010 RMK AO1

METAR KJGG 251815Z 20006KT 10SM CLR 32/21 A3011 RMK AO1

METAR KJGG 251755Z 19007KT 10SM CLR 33/21 A3011 RMK AO1

METAR KJGG 251735Z 20008KT 10SM CLR 33/20 A3012 RMK AO1

METAR KJGG 251715Z 19007KT 10SM CLR 32/20 A3013 RMK AO1

METAR KAKQ 251954Z 22008G15KT 10SM SCT047 32/19 A3007 RMK AO2 SLP180 T03220194 TSNO

METAR KFAF 251958Z VRB04KT 10SM CLR 32/22 A3004 RMK AO2 SLP176 T03220215 $

METAR KFKN 251955Z 16006KT 10SM SCT045 31/20 A3007 RMK AO2 T03100199

TAF for JGG is not available.
TAF

KFAF - TAF KFAF 251800Z 2518/2624 20009KT 9999 FEW040 QNH3004INS

KFAF - BECMG 2523/2524 17009KT 9999 SCT040 QNH2999INS TX33/2518Z TN23/2611Z LAST NO AMDS AFT 2603 NEXT 2611 =

KPHF - TAF KPHF 251727Z 2518/2618 18012KT P6SM FEW045

KPHF - FM260300 22006KT P6SM SCT250

KPHF - FM261500 20006KT P6SM SCT040 SCT250 =

KLFI - TAF KLFI 251700Z 2517/2623 20009KT 9999 FEW040 QNH3006INS

KLFI - BECMG 2523/2524 17009KT 9999 SCT040 QNH3000INS TX31/2519Z TN23/2611Z =

KNGU - TAF KNGU 2515/2615 20006KT 9999 FEW050 SCT300 QNH3003INS

KNGU - TEMPO 2518/2521 03009KT SCT050 BKN280

KNGU - FM260700 19010KT 9999 FEW020 SCT040 SCT280 QNH3002INS

KNGU - FM261200 22008KT 9999 FEW025 SCT050 SCT280 QNH3002INS T31/2519Z T24/2609Z FN20000 =

KORF - TAF KORF 251727Z 2518/2618 20008KT P6SM SCT045

KORF - FM260300 21008KT P6SM SCT250

KORF - FM261500 VRB06KT P6SM SCT040 SCT250 =

KRIC - TAF AMD KRIC 251947Z 2520/2618 20013KT P6SM BKN250

KRIC - FM252300 18008KT P6SM SCT250

KRIC - FM260500 VRB04KT P6SM SKC

KRIC - FM261500 35005KT P6SM SCT070 SCT250 =

GlobalAir.com is loading additional information.
 Current Weather at JGG
91.0 F° (33.0 C°)

South winds at 9.2 mph
Pressure:
30.09 in
Humidity:
49%
Wind:
South at 9.2 mph
Dew Point:
69.8 F° (21.0 C°)
Visibility:
10.00 mi
JGG NOAA Radar




Find All Airport Services Find A Hotel Find A Rental Car Find A Golf Course Find A Restaurant $100 Hamburger



Airport Weather Forecast for KJGG

Translated METAR for KJGG (1955 UTC)
METAR:
KJGG 251955Z AUTO Williamburg-Jamestown, Williamsburg, VA (KJGG). Aug 25, 1955Z, Automated. Wind from 190° at 6 knots, 10 statute miles visibility, Clear Skies, Temperature 33°C, Dewpoint 21°C, Altimeter is 30.07. Remarks: automated station without precipitation discriminator
Conditions at:
KJGG (Williamsburg-Jamestown, VA) observed 1955 UTC 25 August 2016
Temperature:
91.0 F° (33.0 C°)
Dewpoint:
not reported - refer to area weather report
Pressure:
30.09 Hg
Winds:
not reported
Visibility:
10.00
Ceiling:
at least 12,000 feet AGL
Clouds:
not reported - refer to area weather report
Remarks:
site is un-manned

Translated TAF for TAF for JGG is not available. Refer to local area forecast.
FBO's on the Field
FBO Company Facility Photos Services Transportation Aviation Fuel Prices: Prices include tax
Catering Weather Repair Courtesy Rental Type 100LL JetA JetA+ MOGAS 8087
 
Williamsburg-Jamestown

This FBO has not yet been rated
FS:Shell
Last Updated: Jul-28
Login to update fuel prices
SS:
Contact Williamsburg-JamestownMore FBO Information
 
Add another FBO Facility Photos Catering Weather Repair Courtesy Rental Type 100LL JetA JetA+ MOGAS 8087
Services Transportation Aviation Fuel Prices: Prices include tax


model-print
model-print
model-print
model-print